sensor_id;sensor_type;location;lat;lon;timestamp;temperature;humidity
39021;DHT22;25188;51.958;5.842;2023-11-21T00:02:12;9.10;99.90
39021;DHT22;25188;51.958;5.842;2023-11-21T00:04:38;9.10;99.90
39021;DHT22;25188;51.958;5.842;2023-11-21T00:07:03;9.10;99.90
39021;DHT22;25188;51.958;5.842;2023-11-21T00:09:31;9.10;99.90
39021;DHT22;25188;51.958;5.842;2023-11-21T00:11:57;9.10;99.90
39021;DHT22;25188;51.958;5.842;2023-11-21T00:14:24;9.10;99.90
39021;DHT22;25188;51.958;5.842;2023-11-21T00:16:50;9.10;99.90
39021;DHT22;25188;51.958;5.842;2023-11-21T00:19:16;9.00;99.90
39021;DHT22;25188;51.958;5.842;2023-11-21T00:21:42;9.00;99.90
39021;DHT22;25188;51.958;5.842;2023-11-21T00:24:10;9.00;99.90
39021;DHT22;25188;51.958;5.842;2023-11-21T00:26:36;9.00;99.90
39021;DHT22;25188;51.958;5.842;2023-11-21T00:29:04;9.00;99.90
39021;DHT22;25188;51.958;5.842;2023-11-21T00:31:34;8.90;99.90
39021;DHT22;25188;51.958;5.842;2023-11-21T00:34:02;8.90;99.90
39021;DHT22;25188;51.958;5.842;2023-11-21T00:36:29;8.90;99.90
39021;DHT22;25188;51.958;5.842;2023-11-21T00:38:55;8.90;99.90
39021;DHT22;25188;51.958;5.842;2023-11-21T00:41:21;8.90;99.90
39021;DHT22;25188;51.958;5.842;2023-11-21T00:43:46;8.90;99.90
39021;DHT22;25188;51.958;5.842;2023-11-21T00:46:12;8.90;99.90
39021;DHT22;25188;51.958;5.842;2023-11-21T00:48:39;8.80;99.90
39021;DHT22;25188;51.958;5.842;2023-11-21T00:51:05;8.90;99.90
39021;DHT22;25188;51.958;5.842;2023-11-21T00:53:31;8.80;99.90
39021;DHT22;25188;51.958;5.842;2023-11-21T00:55:57;8.80;99.90
39021;DHT22;25188;51.958;5.842;2023-11-21T00:58:26;8.80;99.90
39021;DHT22;25188;51.958;5.842;2023-11-21T01:00:52;8.80;99.90
39021;DHT22;25188;51.958;5.842;2023-11-21T01:03:18;8.80;99.90
39021;DHT22;25188;51.958;5.842;2023-11-21T01:05:44;8.70;99.90
39021;DHT22;25188;51.958;5.842;2023-11-21T01:08:11;8.80;99.90
39021;DHT22;25188;51.958;5.842;2023-11-21T01:10:36;8.70;99.90
39021;DHT22;25188;51.958;5.842;2023-11-21T01:13:02;8.70;99.90
39021;DHT22;25188;51.958;5.842;2023-11-21T01:15:31;8.70;99.90
39021;DHT22;25188;51.958;5.842;2023-11-21T01:17:57;8.70;99.90
39021;DHT22;25188;51.958;5.842;2023-11-21T01:20:22;8.70;99.90
39021;DHT22;25188;51.958;5.842;2023-11-21T01:22:48;8.80;99.90
39021;DHT22;25188;51.958;5.842;2023-11-21T01:25:16;8.80;99.90
39021;DHT22;25188;51.958;5.842;2023-11-21T01:27:43;8.80;99.90
39021;DHT22;25188;51.958;5.842;2023-11-21T01:30:09;8.80;99.90
39021;DHT22;25188;51.958;5.842;2023-11-21T01:32:36;8.80;99.90
39021;DHT22;25188;51.958;5.842;2023-11-21T01:35:03;8.80;99.90
39021;DHT22;25188;51.958;5.842;2023-11-21T01:37:31;8.80;99.90
39021;DHT22;25188;51.958;5.842;2023-11-21T01:39:56;8.80;99.90
39021;DHT22;25188;51.958;5.842;2023-11-21T01:42:22;8.80;99.90
39021;DHT22;25188;51.958;5.842;2023-11-21T01:44:48;8.80;99.90
39021;DHT22;25188;51.958;5.842;2023-11-21T01:47:14;8.80;99.90
39021;DHT22;25188;51.958;5.842;2023-11-21T01:49:43;8.80;99.90
39021;DHT22;25188;51.958;5.842;2023-11-21T01:52:10;8.80;99.90
39021;DHT22;25188;51.958;5.842;2023-11-21T01:54:36;8.80;99.90
39021;DHT22;25188;51.958;5.842;2023-11-21T01:57:04;8.80;99.90
39021;DHT22;25188;51.958;5.842;2023-11-21T01:59:36;8.80;99.90
39021;DHT22;25188;51.958;5.842;2023-11-21T02:02:06;8.90;99.90
39021;DHT22;25188;51.958;5.842;2023-11-21T02:04:32;8.90;99.90
39021;DHT22;25188;51.958;5.842;2023-11-21T02:06:59;8.90;99.90
39021;DHT22;25188;51.958;5.842;2023-11-21T02:09:28;8.90;99.90
39021;DHT22;25188;51.958;5.842;2023-11-21T02:11:57;8.90;99.90
39021;DHT22;25188;51.958;5.842;2023-11-21T02:14:24;8.90;99.90
39021;DHT22;25188;51.958;5.842;2023-11-21T02:16:52;8.90;99.90
39021;DHT22;25188;51.958;5.842;2023-11-21T02:19:19;8.90;99.90
39021;DHT22;25188;51.958;5.842;2023-11-21T02:21:51;8.90;99.90
39021;DHT22;25188;51.958;5.842;2023-11-21T02:24:21;8.90;99.90
39021;DHT22;25188;51.958;5.842;2023-11-21T02:26:48;8.90;99.90
39021;DHT22;25188;51.958;5.842;2023-11-21T02:29:14;8.90;99.90
39021;DHT22;25188;51.958;5.842;2023-11-21T02:31:43;8.90;99.90
39021;DHT22;25188;51.958;5.842;2023-11-21T02:34:17;8.90;99.90
39021;DHT22;25188;51.958;5.842;2023-11-21T02:36:47;8.90;99.90
39021;DHT22;25188;51.958;5.842;2023-11-21T02:39:16;8.90;99.90
39021;DHT22;25188;51.958;5.842;2023-11-21T02:41:45;8.90;99.90
39021;DHT22;25188;51.958;5.842;2023-11-21T02:44:11;8.90;99.90
39021;DHT22;25188;51.958;5.842;2023-11-21T02:46:37;8.90;99.90
39021;DHT22;25188;51.958;5.842;2023-11-21T02:49:03;8.90;99.90
39021;DHT22;25188;51.958;5.842;2023-11-21T02:51:30;8.90;99.90
39021;DHT22;25188;51.958;5.842;2023-11-21T02:53:56;8.90;99.90
39021;DHT22;25188;51.958;5.842;2023-11-21T02:56:26;8.90;99.90
39021;DHT22;25188;51.958;5.842;2023-11-21T02:58:54;8.90;99.90
39021;DHT22;25188;51.958;5.842;2023-11-21T03:01:20;8.90;99.90
39021;DHT22;25188;51.958;5.842;2023-11-21T03:03:46;8.90;99.90
39021;DHT22;25188;51.958;5.842;2023-11-21T03:06:13;9.00;99.90
39021;DHT22;25188;51.958;5.842;2023-11-21T03:08:38;8.90;99.90
39021;DHT22;25188;51.958;5.842;2023-11-21T03:11:04;8.90;99.90
39021;DHT22;25188;51.958;5.842;2023-11-21T03:13:30;8.90;99.90
39021;DHT22;25188;51.958;5.842;2023-11-21T03:15:55;8.90;99.90
39021;DHT22;25188;51.958;5.842;2023-11-21T03:18:21;8.90;99.90
39021;DHT22;25188;51.958;5.842;2023-11-21T03:20:52;8.90;99.90
39021;DHT22;25188;51.958;5.842;2023-11-21T03:23:17;8.90;99.90
39021;DHT22;25188;51.958;5.842;2023-11-21T03:25:43;8.90;99.90
39021;DHT22;25188;51.958;5.842;2023-11-21T03:28:09;8.90;99.90
39021;DHT22;25188;51.958;5.842;2023-11-21T03:30:35;8.90;99.90
39021;DHT22;25188;51.958;5.842;2023-11-21T03:33:00;8.90;99.90
39021;DHT22;25188;51.958;5.842;2023-11-21T03:35:26;8.80;99.90
39021;DHT22;25188;51.958;5.842;2023-11-21T03:37:52;8.80;99.90
39021;DHT22;25188;51.958;5.842;2023-11-21T03:40:18;8.80;99.90
39021;DHT22;25188;51.958;5.842;2023-11-21T03:42:43;8.80;99.90
39021;DHT22;25188;51.958;5.842;2023-11-21T03:45:09;8.80;99.90
39021;DHT22;25188;51.958;5.842;2023-11-21T03:47:35;8.80;99.90
39021;DHT22;25188;51.958;5.842;2023-11-21T03:50:01;8.70;99.90
39021;DHT22;25188;51.958;5.842;2023-11-21T03:52:26;8.70;99.90
39021;DHT22;25188;51.958;5.842;2023-11-21T03:54:54;8.70;99.90
39021;DHT22;25188;51.958;5.842;2023-11-21T03:57:20;8.70;99.90
39021;DHT22;25188;51.958;5.842;2023-11-21T03:59:46;8.70;99.90
39021;DHT22;25188;51.958;5.842;2023-11-21T04:02:12;8.70;99.90
39021;DHT22;25188;51.958;5.842;2023-11-21T04:04:37;8.70;99.90
39021;DHT22;25188;51.958;5.842;2023-11-21T04:07:03;8.70;99.90
39021;DHT22;25188;51.958;5.842;2023-11-21T04:09:29;8.80;99.90
39021;DHT22;25188;51.958;5.842;2023-11-21T04:11:55;8.70;99.90
39021;DHT22;25188;51.958;5.842;2023-11-21T04:14:21;8.70;99.90
39021;DHT22;25188;51.958;5.842;2023-11-21T04:16:47;8.70;99.90
39021;DHT22;25188;51.958;5.842;2023-11-21T04:19:14;8.80;99.90
39021;DHT22;25188;51.958;5.842;2023-11-21T04:21:42;8.70;99.90
39021;DHT22;25188;51.958;5.842;2023-11-21T04:24:08;8.70;99.90
39021;DHT22;25188;51.958;5.842;2023-11-21T04:26:34;8.70;99.90
39021;DHT22;25188;51.958;5.842;2023-11-21T04:29:00;8.80;99.90
39021;DHT22;25188;51.958;5.842;2023-11-21T04:31:25;8.80;99.90
39021;DHT22;25188;51.958;5.842;2023-11-21T04:33:51;8.80;99.90
39021;DHT22;25188;51.958;5.842;2023-11-21T04:36:17;8.90;99.90
39021;DHT22;25188;51.958;5.842;2023-11-21T04:38:42;8.90;99.90
39021;DHT22;25188;51.958;5.842;2023-11-21T04:41:08;8.80;99.90
39021;DHT22;25188;51.958;5.842;2023-11-21T04:43:34;8.90;99.90
39021;DHT22;25188;51.958;5.842;2023-11-21T04:45:59;8.90;99.90
39021;DHT22;25188;51.958;5.842;2023-11-21T04:48:26;8.90;99.90
39021;DHT22;25188;51.958;5.842;2023-11-21T04:50:51;8.90;99.90
39021;DHT22;25188;51.958;5.842;2023-11-21T04:53:17;8.90;99.90
39021;DHT22;25188;51.958;5.842;2023-11-21T04:55:43;8.90;99.90
39021;DHT22;25188;51.958;5.842;2023-11-21T04:58:09;8.90;99.90
39021;DHT22;25188;51.958;5.842;2023-11-21T05:00:36;8.80;99.90
39021;DHT22;25188;51.958;5.842;2023-11-21T05:03:02;8.90;99.90
39021;DHT22;25188;51.958;5.842;2023-11-21T05:05:29;8.90;99.90
39021;DHT22;25188;51.958;5.842;2023-11-21T05:07:59;8.90;99.90
39021;DHT22;25188;51.958;5.842;2023-11-21T05:10:25;8.90;99.90
39021;DHT22;25188;51.958;5.842;2023-11-21T05:12:50;8.90;99.90
39021;DHT22;25188;51.958;5.842;2023-11-21T05:15:17;8.90;99.90
39021;DHT22;25188;51.958;5.842;2023-11-21T05:17:44;8.90;99.90
39021;DHT22;25188;51.958;5.842;2023-11-21T05:20:11;8.90;99.90
39021;DHT22;25188;51.958;5.842;2023-11-21T05:22:37;8.90;99.90
39021;DHT22;25188;51.958;5.842;2023-11-21T05:25:04;9.00;99.90
39021;DHT22;25188;51.958;5.842;2023-11-21T05:27:30;9.00;99.90
39021;DHT22;25188;51.958;5.842;2023-11-21T05:29:56;9.00;99.90
39021;DHT22;25188;51.958;5.842;2023-11-21T05:32:24;9.00;99.90
39021;DHT22;25188;51.958;5.842;2023-11-21T05:34:49;9.00;99.90
39021;DHT22;25188;51.958;5.842;2023-11-21T05:37:15;9.00;99.90
39021;DHT22;25188;51.958;5.842;2023-11-21T05:39:40;9.00;99.90
39021;DHT22;25188;51.958;5.842;2023-11-21T05:42:06;9.00;99.90
39021;DHT22;25188;51.958;5.842;2023-11-21T05:44:34;9.00;99.90
39021;DHT22;25188;51.958;5.842;2023-11-21T05:47:00;9.00;99.90
39021;DHT22;25188;51.958;5.842;2023-11-21T05:49:26;9.00;99.90
39021;DHT22;25188;51.958;5.842;2023-11-21T05:51:55;9.00;99.90
39021;DHT22;25188;51.958;5.842;2023-11-21T05:54:21;9.00;99.90
39021;DHT22;25188;51.958;5.842;2023-11-21T05:56:47;9.10;99.90
39021;DHT22;25188;51.958;5.842;2023-11-21T05:59:13;9.10;99.90
39021;DHT22;25188;51.958;5.842;2023-11-21T06:01:39;9.10;99.90
39021;DHT22;25188;51.958;5.842;2023-11-21T06:04:05;9.10;99.90
39021;DHT22;25188;51.958;5.842;2023-11-21T06:06:30;9.10;99.90
39021;DHT22;25188;51.958;5.842;2023-11-21T06:08:57;9.10;99.90
39021;DHT22;25188;51.958;5.842;2023-11-21T06:11:22;9.10;99.90
39021;DHT22;25188;51.958;5.842;2023-11-21T06:13:50;9.20;99.90
39021;DHT22;25188;51.958;5.842;2023-11-21T06:16:15;9.20;99.90
39021;DHT22;25188;51.958;5.842;2023-11-21T06:18:44;9.20;99.90
39021;DHT22;25188;51.958;5.842;2023-11-21T06:21:10;9.20;99.90
39021;DHT22;25188;51.958;5.842;2023-11-21T06:23:36;9.20;99.90
39021;DHT22;25188;51.958;5.842;2023-11-21T06:26:01;9.20;99.90
39021;DHT22;25188;51.958;5.842;2023-11-21T06:28:27;9.20;99.90
39021;DHT22;25188;51.958;5.842;2023-11-21T06:30:53;9.30;99.90
39021;DHT22;25188;51.958;5.842;2023-11-21T06:33:19;9.30;99.90
39021;DHT22;25188;51.958;5.842;2023-11-21T06:35:44;9.30;99.90
39021;DHT22;25188;51.958;5.842;2023-11-21T06:38:10;9.30;99.90
39021;DHT22;25188;51.958;5.842;2023-11-21T06:40:36;9.30;99.90
39021;DHT22;25188;51.958;5.842;2023-11-21T06:43:02;9.30;99.90
39021;DHT22;25188;51.958;5.842;2023-11-21T06:45:27;9.30;99.90
39021;DHT22;25188;51.958;5.842;2023-11-21T06:47:53;9.30;99.90
39021;DHT22;25188;51.958;5.842;2023-11-21T06:50:19;9.30;99.90
39021;DHT22;25188;51.958;5.842;2023-11-21T06:52:44;9.30;99.90
39021;DHT22;25188;51.958;5.842;2023-11-21T06:55:10;9.30;99.90
39021;DHT22;25188;51.958;5.842;2023-11-21T06:57:36;9.30;99.90
39021;DHT22;25188;51.958;5.842;2023-11-21T07:00:02;9.30;99.90
39021;DHT22;25188;51.958;5.842;2023-11-21T07:02:28;9.40;99.90
39021;DHT22;25188;51.958;5.842;2023-11-21T07:04:54;9.40;99.90
39021;DHT22;25188;51.958;5.842;2023-11-21T07:07:20;9.40;99.90
39021;DHT22;25188;51.958;5.842;2023-11-21T07:09:45;9.40;99.90
39021;DHT22;25188;51.958;5.842;2023-11-21T07:12:11;9.50;99.90
39021;DHT22;25188;51.958;5.842;2023-11-21T07:14:37;9.50;99.90
39021;DHT22;25188;51.958;5.842;2023-11-21T07:17:04;9.50;99.90
39021;DHT22;25188;51.958;5.842;2023-11-21T07:19:30;9.50;99.90
39021;DHT22;25188;51.958;5.842;2023-11-21T07:21:56;9.50;99.90
39021;DHT22;25188;51.958;5.842;2023-11-21T07:24:21;9.50;99.90
39021;DHT22;25188;51.958;5.842;2023-11-21T07:26:48;9.50;99.90
39021;DHT22;25188;51.958;5.842;2023-11-21T07:29:14;9.50;99.90
39021;DHT22;25188;51.958;5.842;2023-11-21T07:31:40;9.60;99.90
39021;DHT22;25188;51.958;5.842;2023-11-21T07:34:06;9.60;99.90
39021;DHT22;25188;51.958;5.842;2023-11-21T07:36:33;9.60;99.90
39021;DHT22;25188;51.958;5.842;2023-11-21T07:38:59;9.60;99.90
39021;DHT22;25188;51.958;5.842;2023-11-21T07:41:25;9.60;99.90
39021;DHT22;25188;51.958;5.842;2023-11-21T07:43:51;9.60;99.90
39021;DHT22;25188;51.958;5.842;2023-11-21T07:46:17;9.60;99.90
39021;DHT22;25188;51.958;5.842;2023-11-21T07:48:43;9.70;99.90
39021;DHT22;25188;51.958;5.842;2023-11-21T07:51:09;9.60;99.90
39021;DHT22;25188;51.958;5.842;2023-11-21T07:53:36;9.70;99.90
39021;DHT22;25188;51.958;5.842;2023-11-21T07:56:08;9.70;99.90
39021;DHT22;25188;51.958;5.842;2023-11-21T07:58:37;9.70;99.90
39021;DHT22;25188;51.958;5.842;2023-11-21T08:01:03;9.70;99.90
39021;DHT22;25188;51.958;5.842;2023-11-21T08:03:30;9.70;99.90
39021;DHT22;25188;51.958;5.842;2023-11-21T08:05:57;9.70;99.90
39021;DHT22;25188;51.958;5.842;2023-11-21T08:08:23;9.80;99.90
39021;DHT22;25188;51.958;5.842;2023-11-21T08:10:49;9.80;99.90
39021;DHT22;25188;51.958;5.842;2023-11-21T08:13:22;9.80;99.90
39021;DHT22;25188;51.958;5.842;2023-11-21T08:15:48;9.80;99.90
39021;DHT22;25188;51.958;5.842;2023-11-21T08:18:14;9.90;99.90
39021;DHT22;25188;51.958;5.842;2023-11-21T08:20:40;9.90;99.90
39021;DHT22;25188;51.958;5.842;2023-11-21T08:23:06;9.90;99.90
39021;DHT22;25188;51.958;5.842;2023-11-21T08:25:32;9.90;99.90
39021;DHT22;25188;51.958;5.842;2023-11-21T08:28:00;9.90;99.90
39021;DHT22;25188;51.958;5.842;2023-11-21T08:30:25;10.00;99.90
39021;DHT22;25188;51.958;5.842;2023-11-21T08:32:54;10.00;99.90
39021;DHT22;25188;51.958;5.842;2023-11-21T08:35:26;10.00;99.90
39021;DHT22;25188;51.958;5.842;2023-11-21T08:37:52;10.00;99.90
39021;DHT22;25188;51.958;5.842;2023-11-21T08:40:21;10.00;99.90
39021;DHT22;25188;51.958;5.842;2023-11-21T08:42:47;10.00;99.90
39021;DHT22;25188;51.958;5.842;2023-11-21T08:45:14;10.00;99.90
39021;DHT22;25188;51.958;5.842;2023-11-21T08:47:40;10.10;99.90
39021;DHT22;25188;51.958;5.842;2023-11-21T08:50:06;10.10;99.90
39021;DHT22;25188;51.958;5.842;2023-11-21T08:52:34;10.20;99.90
39021;DHT22;25188;51.958;5.842;2023-11-21T08:55:00;10.20;99.90
39021;DHT22;25188;51.958;5.842;2023-11-21T08:57:33;10.20;99.90
39021;DHT22;25188;51.958;5.842;2023-11-21T08:59:59;10.30;99.90
39021;DHT22;25188;51.958;5.842;2023-11-21T09:02:28;10.30;99.90
39021;DHT22;25188;51.958;5.842;2023-11-21T09:04:53;10.30;99.90
39021;DHT22;25188;51.958;5.842;2023-11-21T09:07:19;10.40;99.90
39021;DHT22;25188;51.958;5.842;2023-11-21T09:09:46;10.50;99.90
39021;DHT22;25188;51.958;5.842;2023-11-21T09:12:13;10.50;99.90
39021;DHT22;25188;51.958;5.842;2023-11-21T09:14:39;10.50;99.90
39021;DHT22;25188;51.958;5.842;2023-11-21T09:17:05;10.50;99.90
39021;DHT22;25188;51.958;5.842;2023-11-21T09:19:40;10.50;99.90
39021;DHT22;25188;51.958;5.842;2023-11-21T09:22:06;10.50;99.90
39021;DHT22;25188;51.958;5.842;2023-11-21T09:24:35;10.60;99.90
39021;DHT22;25188;51.958;5.842;2023-11-21T09:27:01;10.60;99.90
39021;DHT22;25188;51.958;5.842;2023-11-21T09:29:27;10.60;99.90
39021;DHT22;25188;51.958;5.842;2023-11-21T09:31:54;10.60;99.90
39021;DHT22;25188;51.958;5.842;2023-11-21T09:34:21;10.60;99.90
39021;DHT22;25188;51.958;5.842;2023-11-21T09:36:47;10.60;99.90
39021;DHT22;25188;51.958;5.842;2023-11-21T09:39:13;10.60;99.90
39021;DHT22;25188;51.958;5.842;2023-11-21T09:41:50;10.60;99.90
39021;DHT22;25188;51.958;5.842;2023-11-21T09:44:26;10.70;99.90
39021;DHT22;25188;51.958;5.842;2023-11-21T09:46:59;10.70;99.90
39021;DHT22;25188;51.958;5.842;2023-11-21T09:49:26;10.70;99.90
39021;DHT22;25188;51.958;5.842;2023-11-21T09:51:55;10.80;99.90
39021;DHT22;25188;51.958;5.842;2023-11-21T09:54:21;10.80;99.90
39021;DHT22;25188;51.958;5.842;2023-11-21T09:56:47;10.80;99.90
39021;DHT22;25188;51.958;5.842;2023-11-21T09:59:15;10.80;99.90
39021;DHT22;25188;51.958;5.842;2023-11-21T10:01:41;10.90;99.90
39021;DHT22;25188;51.958;5.842;2023-11-21T10:04:10;10.90;99.90
39021;DHT22;25188;51.958;5.842;2023-11-21T10:06:40;10.90;99.90
39021;DHT22;25188;51.958;5.842;2023-11-21T10:09:12;11.00;99.90
39021;DHT22;25188;51.958;5.842;2023-11-21T10:11:43;11.10;99.90
39021;DHT22;25188;51.958;5.842;2023-11-21T10:14:11;11.20;99.90
39021;DHT22;25188;51.958;5.842;2023-11-21T10:16:40;11.30;99.90
39021;DHT22;25188;51.958;5.842;2023-11-21T10:19:08;11.40;99.90
39021;DHT22;25188;51.958;5.842;2023-11-21T10:21:35;11.40;99.90
39021;DHT22;25188;51.958;5.842;2023-11-21T10:24:01;11.60;99.90
39021;DHT22;25188;51.958;5.842;2023-11-21T10:26:28;11.60;99.90
39021;DHT22;25188;51.958;5.842;2023-11-21T10:29:01;11.70;99.90
39021;DHT22;25188;51.958;5.842;2023-11-21T10:31:32;11.70;99.90
39021;DHT22;25188;51.958;5.842;2023-11-21T10:34:14;11.80;99.90
39021;DHT22;25188;51.958;5.842;2023-11-21T10:36:40;11.80;99.90
39021;DHT22;25188;51.958;5.842;2023-11-21T10:39:06;11.80;99.90
39021;DHT22;25188;51.958;5.842;2023-11-21T10:41:33;11.80;99.90
39021;DHT22;25188;51.958;5.842;2023-11-21T10:43:59;11.80;99.90
39021;DHT22;25188;51.958;5.842;2023-11-21T10:46:25;11.80;99.90
39021;DHT22;25188;51.958;5.842;2023-11-21T10:48:53;11.90;99.90
39021;DHT22;25188;51.958;5.842;2023-11-21T10:51:20;11.90;99.90
39021;DHT22;25188;51.958;5.842;2023-11-21T10:53:46;11.90;99.90
39021;DHT22;25188;51.958;5.842;2023-11-21T10:56:14;11.90;99.90
39021;DHT22;25188;51.958;5.842;2023-11-21T10:58:45;11.90;99.90
39021;DHT22;25188;51.958;5.842;2023-11-21T11:01:11;12.00;99.90
39021;DHT22;25188;51.958;5.842;2023-11-21T11:03:40;11.90;99.90
39021;DHT22;25188;51.958;5.842;2023-11-21T11:06:07;11.90;99.90
39021;DHT22;25188;51.958;5.842;2023-11-21T11:08:42;11.90;99.90
39021;DHT22;25188;51.958;5.842;2023-11-21T11:11:09;11.90;99.90
39021;DHT22;25188;51.958;5.842;2023-11-21T11:13:35;11.80;99.90
39021;DHT22;25188;51.958;5.842;2023-11-21T11:16:03;11.80;99.90
39021;DHT22;25188;51.958;5.842;2023-11-21T11:18:32;11.80;99.90
39021;DHT22;25188;51.958;5.842;2023-11-21T11:21:10;11.70;99.90
39021;DHT22;25188;51.958;5.842;2023-11-21T11:24:13;11.70;99.90
39021;DHT22;25188;51.958;5.842;2023-11-21T11:26:58;11.60;99.90
39021;DHT22;25188;51.958;5.842;2023-11-21T11:35:10;11.50;99.90
39021;DHT22;25188;51.958;5.842;2023-11-21T11:37:35;11.50;99.90
39021;DHT22;25188;51.958;5.842;2023-11-21T11:40:01;11.50;99.90
39021;DHT22;25188;51.958;5.842;2023-11-21T11:42:26;11.40;99.90
39021;DHT22;25188;51.958;5.842;2023-11-21T11:44:53;11.40;99.90
39021;DHT22;25188;51.958;5.842;2023-11-21T11:47:31;11.40;99.90
39021;DHT22;25188;51.958;5.842;2023-11-21T11:50:08;11.40;99.90
39021;DHT22;25188;51.958;5.842;2023-11-21T11:52:54;11.50;99.90
39021;DHT22;25188;51.958;5.842;2023-11-21T11:55:24;11.50;99.90
39021;DHT22;25188;51.958;5.842;2023-11-21T11:57:54;11.50;99.90
39021;DHT22;25188;51.958;5.842;2023-11-21T12:02:54;11.50;99.90
39021;DHT22;25188;51.958;5.842;2023-11-21T12:05:22;11.60;99.90
39021;DHT22;25188;51.958;5.842;2023-11-21T12:07:55;11.60;99.90
39021;DHT22;25188;51.958;5.842;2023-11-21T12:10:25;11.70;99.90
39021;DHT22;25188;51.958;5.842;2023-11-21T12:12:54;11.70;99.90
39021;DHT22;25188;51.958;5.842;2023-11-21T12:15:20;11.80;99.90
39021;DHT22;25188;51.958;5.842;2023-11-21T12:17:47;11.80;99.90
39021;DHT22;25188;51.958;5.842;2023-11-21T12:20:16;11.80;99.90
39021;DHT22;25188;51.958;5.842;2023-11-21T12:22:48;11.80;99.90
39021;DHT22;25188;51.958;5.842;2023-11-21T12:25:21;11.80;99.90
39021;DHT22;25188;51.958;5.842;2023-11-21T12:27:48;11.80;99.90
39021;DHT22;25188;51.958;5.842;2023-11-21T12:30:16;11.70;99.90
39021;DHT22;25188;51.958;5.842;2023-11-21T12:32:43;11.70;99.90
39021;DHT22;25188;51.958;5.842;2023-11-21T12:35:10;11.70;99.90
39021;DHT22;25188;51.958;5.842;2023-11-21T12:37:39;11.60;99.90
39021;DHT22;25188;51.958;5.842;2023-11-21T12:40:08;11.60;99.90
39021;DHT22;25188;51.958;5.842;2023-11-21T12:42:38;11.60;99.90
39021;DHT22;25188;51.958;5.842;2023-11-21T12:45:18;11.60;99.90
39021;DHT22;25188;51.958;5.842;2023-11-21T12:47:46;11.50;99.90
39021;DHT22;25188;51.958;5.842;2023-11-21T12:50:12;11.60;99.90
39021;DHT22;25188;51.958;5.842;2023-11-21T12:52:50;11.60;99.90
39021;DHT22;25188;51.958;5.842;2023-11-21T12:55:18;11.60;99.90
39021;DHT22;25188;51.958;5.842;2023-11-21T12:57:48;11.70;99.90
39021;DHT22;25188;51.958;5.842;2023-11-21T13:00:16;11.70;99.90
39021;DHT22;25188;51.958;5.842;2023-11-21T13:02:56;11.70;99.90
39021;DHT22;25188;51.958;5.842;2023-11-21T13:05:29;11.70;99.90
39021;DHT22;25188;51.958;5.842;2023-11-21T13:07:58;11.60;99.90
39021;DHT22;25188;51.958;5.842;2023-11-21T13:10:25;11.70;99.90
39021;DHT22;25188;51.958;5.842;2023-11-21T13:12:52;11.70;99.90
39021;DHT22;25188;51.958;5.842;2023-11-21T13:15:19;11.60;99.90
39021;DHT22;25188;51.958;5.842;2023-11-21T13:17:45;11.70;99.90
39021;DHT22;25188;51.958;5.842;2023-11-21T13:20:12;11.60;99.90
39021;DHT22;25188;51.958;5.842;2023-11-21T13:22:55;11.60;99.90
39021;DHT22;25188;51.958;5.842;2023-11-21T13:25:27;11.60;99.90
39021;DHT22;25188;51.958;5.842;2023-11-21T13:27:59;11.50;99.90
39021;DHT22;25188;51.958;5.842;2023-11-21T13:30:26;11.50;99.90
39021;DHT22;25188;51.958;5.842;2023-11-21T13:32:56;11.50;99.90
39021;DHT22;25188;51.958;5.842;2023-11-21T13:35:29;11.50;99.90
39021;DHT22;25188;51.958;5.842;2023-11-21T13:38:08;11.50;99.90
39021;DHT22;25188;51.958;5.842;2023-11-21T13:40:35;11.50;99.90
39021;DHT22;25188;51.958;5.842;2023-11-21T13:43:08;11.60;99.90
39021;DHT22;25188;51.958;5.842;2023-11-21T13:45:42;11.70;99.90
39021;DHT22;25188;51.958;5.842;2023-11-21T13:48:10;11.70;99.90
39021;DHT22;25188;51.958;5.842;2023-11-21T13:50:46;11.70;99.90
39021;DHT22;25188;51.958;5.842;2023-11-21T13:53:21;11.70;99.90
39021;DHT22;25188;51.958;5.842;2023-11-21T13:55:51;11.80;99.90
39021;DHT22;25188;51.958;5.842;2023-11-21T13:58:21;11.80;99.90
39021;DHT22;25188;51.958;5.842;2023-11-21T14:01:07;11.80;99.90
39021;DHT22;25188;51.958;5.842;2023-11-21T14:03:42;11.80;99.90
39021;DHT22;25188;51.958;5.842;2023-11-21T14:06:17;11.80;99.90
39021;DHT22;25188;51.958;5.842;2023-11-21T14:08:50;11.70;99.90
39021;DHT22;25188;51.958;5.842;2023-11-21T14:11:16;11.70;99.90
39021;DHT22;25188;51.958;5.842;2023-11-21T14:13:47;11.70;99.90
39021;DHT22;25188;51.958;5.842;2023-11-21T14:16:17;11.60;99.90
39021;DHT22;25188;51.958;5.842;2023-11-21T14:18:43;11.60;99.90
39021;DHT22;25188;51.958;5.842;2023-11-21T14:21:21;11.50;99.90
39021;DHT22;25188;51.958;5.842;2023-11-21T14:23:47;11.40;99.90
39021;DHT22;25188;51.958;5.842;2023-11-21T14:26:13;11.30;99.90
39021;DHT22;25188;51.958;5.842;2023-11-21T14:28:40;11.30;99.90
39021;DHT22;25188;51.958;5.842;2023-11-21T14:31:07;11.30;99.90
39021;DHT22;25188;51.958;5.842;2023-11-21T14:33:33;11.10;99.90
39021;DHT22;25188;51.958;5.842;2023-11-21T14:35:59;11.10;99.90
39021;DHT22;25188;51.958;5.842;2023-11-21T14:38:24;11.00;99.90
39021;DHT22;25188;51.958;5.842;2023-11-21T14:40:50;10.90;99.90
39021;DHT22;25188;51.958;5.842;2023-11-21T14:43:16;10.90;99.90
39021;DHT22;25188;51.958;5.842;2023-11-21T14:45:43;10.90;99.90
39021;DHT22;25188;51.958;5.842;2023-11-21T14:48:09;10.90;99.90
39021;DHT22;25188;51.958;5.842;2023-11-21T14:50:42;10.90;99.90
39021;DHT22;25188;51.958;5.842;2023-11-21T14:53:12;10.90;99.90
39021;DHT22;25188;51.958;5.842;2023-11-21T14:55:41;10.90;99.90
39021;DHT22;25188;51.958;5.842;2023-11-21T14:58:22;10.90;99.90
39021;DHT22;25188;51.958;5.842;2023-11-21T15:00:58;10.90;99.90
39021;DHT22;25188;51.958;5.842;2023-11-21T15:03:28;10.80;99.90
39021;DHT22;25188;51.958;5.842;2023-11-21T15:06:02;10.80;99.90
39021;DHT22;25188;51.958;5.842;2023-11-21T15:08:53;10.80;99.90
39021;DHT22;25188;51.958;5.842;2023-11-21T15:11:28;10.70;99.90
39021;DHT22;25188;51.958;5.842;2023-11-21T15:13:57;10.70;99.90
39021;DHT22;25188;51.958;5.842;2023-11-21T15:16:23;10.70;99.90
39021;DHT22;25188;51.958;5.842;2023-11-21T15:18:49;10.70;99.90
39021;DHT22;25188;51.958;5.842;2023-11-21T15:21:14;10.60;99.90
39021;DHT22;25188;51.958;5.842;2023-11-21T15:23:40;10.60;99.90
39021;DHT22;25188;51.958;5.842;2023-11-21T15:26:07;10.50;99.90
39021;DHT22;25188;51.958;5.842;2023-11-21T15:28:34;10.40;99.90
39021;DHT22;25188;51.958;5.842;2023-11-21T15:31:00;10.40;99.90
39021;DHT22;25188;51.958;5.842;2023-11-21T15:33:28;10.30;99.90
39021;DHT22;25188;51.958;5.842;2023-11-21T15:35:53;10.20;99.90
39021;DHT22;25188;51.958;5.842;2023-11-21T15:38:20;10.20;99.90
39021;DHT22;25188;51.958;5.842;2023-11-21T15:40:47;10.20;99.90
39021;DHT22;25188;51.958;5.842;2023-11-21T15:43:12;10.20;99.90
39021;DHT22;25188;51.958;5.842;2023-11-21T15:45:39;10.10;99.90
39021;DHT22;25188;51.958;5.842;2023-11-21T15:48:05;10.10;99.90
39021;DHT22;25188;51.958;5.842;2023-11-21T15:50:31;10.10;99.90
39021;DHT22;25188;51.958;5.842;2023-11-21T15:52:57;10.10;99.90